createdAt,value
2018-09-27T00:00:56.271Z,66.16
2018-09-27T00:03:24.450Z,65.83
2018-09-27T00:05:52.639Z,64.46
2018-09-27T00:08:20.794Z,64.78
2018-09-27T00:10:48.946Z,65.06
2018-09-27T00:13:17.102Z,64.98
2018-09-27T00:15:45.279Z,65.82
2018-09-27T00:18:13.444Z,65.11
2018-09-27T00:20:41.607Z,65.19
2018-09-27T00:23:09.760Z,64.67
2018-09-27T00:25:37.951Z,65.78
2018-09-27T00:28:06.114Z,65.18
2018-09-27T00:30:34.280Z,65.61
2018-09-27T00:33:02.439Z,66.22
2018-09-27T00:35:30.602Z,66.14
2018-09-27T00:37:58.862Z,65.80
2018-09-27T00:40:27.015Z,66.44
2018-09-27T00:42:55.178Z,66.05
2018-09-27T00:45:23.363Z,65.54
2018-09-27T00:47:51.527Z,65.88
2018-09-27T00:50:19.732Z,66.22
2018-09-27T00:52:47.890Z,66.16
2018-09-27T00:55:16.047Z,66.01
2018-09-27T00:57:44.203Z,66.18
2018-09-27T01:00:12.404Z,65.78
2018-09-27T01:02:40.587Z,64.57
2018-09-27T01:05:08.740Z,65.99
2018-09-27T01:07:36.909Z,64.92
2018-09-27T01:10:05.167Z,65.67
2018-09-27T01:12:33.330Z,65.25
2018-09-27T01:15:01.494Z,64.99
2018-09-27T01:17:29.647Z,65.67
2018-09-27T01:19:57.799Z,66.35
2018-09-27T01:22:25.958Z,65.44
2018-09-27T01:24:54.127Z,65.05
2018-09-27T01:27:22.287Z,64.99
2018-09-27T01:29:50.461Z,65.24
2018-09-27T01:32:18.615Z,64.79
2018-09-27T01:34:46.781Z,64.57
2018-09-27T01:37:15.043Z,64.28
2018-09-27T01:39:43.199Z,65.18
2018-09-27T01:42:11.352Z,64.59
2018-09-27T01:44:39.498Z,64.91
2018-09-27T01:47:07.714Z,65.70
2018-09-27T01:49:35.858Z,64.42
2018-09-27T01:52:04.047Z,65.13
2018-09-27T01:54:32.211Z,64.51
2018-09-27T01:57:00.358Z,64.58
2018-09-27T01:59:28.541Z,64.54
2018-09-27T02:01:56.711Z,65.47
2018-09-27T02:04:24.867Z,65.45
2018-09-27T02:06:53.031Z,64.87
2018-09-27T02:09:21.198Z,65.08
2018-09-27T02:11:49.352Z,64.62
2018-09-27T02:14:17.516Z,65.25
2018-09-27T02:16:45.687Z,64.35
2018-09-27T02:19:13.844Z,65.42
2018-09-27T02:21:42.014Z,64.90
2018-09-27T02:24:10.195Z,65.75
2018-09-27T02:26:38.371Z,65.16
2018-09-27T02:29:06.518Z,65.17
2018-09-27T02:31:34.683Z,65.47
2018-09-27T02:34:02.843Z,65.11
2018-09-27T02:36:31.020Z,65.44
2018-09-27T02:38:59.190Z,65.34
2018-09-27T02:41:27.399Z,65.08
2018-09-27T02:43:55.546Z,66.27
2018-09-27T02:46:23.709Z,66.14
2018-09-27T02:48:51.870Z,66.28
2018-09-27T02:51:20.011Z,65.46
2018-09-27T02:53:48.171Z,65.59
2018-09-27T02:56:16.335Z,65.87
2018-09-27T02:58:44.494Z,65.72
2018-09-27T03:01:12.642Z,66.83
2018-09-27T03:03:40.826Z,66.51
2018-09-27T03:06:09.033Z,66.28
2018-09-27T03:08:37.203Z,65.87
2018-09-27T03:11:05.370Z,66.67
2018-09-27T03:13:33.571Z,66.73
2018-09-27T03:16:01.735Z,65.20
2018-09-27T03:18:29.907Z,65.68
2018-09-27T03:20:58.155Z,65.59
2018-09-27T03:23:26.238Z,66.26
2018-09-27T03:25:54.489Z,65.50
2018-09-27T03:28:22.651Z,65.75
2018-09-27T03:30:51.151Z,66.53
2018-09-27T03:33:19.340Z,66.09
2018-09-27T03:35:47.499Z,66.92
2018-09-27T03:38:15.655Z,66.60
2018-09-27T03:40:43.888Z,66.11
2018-09-27T03:43:12.007Z,65.94
2018-09-27T03:45:40.162Z,66.00
2018-09-27T03:48:08.328Z,66.30
2018-09-27T03:50:36.491Z,67.17
2018-09-27T03:53:04.656Z,66.77
2018-09-27T03:55:32.881Z,66.71
2018-09-27T03:58:01.118Z,67.43
2018-09-27T04:00:29.319Z,67.14
2018-09-27T04:02:57.487Z,66.98
2018-09-27T04:05:25.647Z,66.27
2018-09-27T04:07:53.800Z,67.16
2018-09-27T04:10:21.959Z,66.15
2018-09-27T04:12:50.140Z,66.39
2018-09-27T04:15:18.298Z,66.16
2018-09-27T04:17:46.519Z,66.49
2018-09-27T04:20:14.695Z,66.92
2018-09-27T04:22:42.863Z,66.73
2018-09-27T04:25:11.078Z,67.29
2018-09-27T04:27:39.237Z,66.66
2018-09-27T04:30:07.671Z,67.30
2018-09-27T04:32:38.872Z,66.33
2018-09-27T04:35:07.051Z,66.70
2018-09-27T04:37:35.283Z,66.47
2018-09-27T04:40:03.452Z,66.62
2018-09-27T04:42:31.659Z,66.60
2018-09-27T04:44:59.824Z,65.63
2018-09-27T04:47:27.990Z,66.92
2018-09-27T04:49:56.151Z,67.24
2018-09-27T04:52:24.342Z,67.21
2018-09-27T04:54:52.527Z,66.38
2018-09-27T04:57:20.699Z,66.44
2018-09-27T04:59:48.875Z,65.96
2018-09-27T05:02:17.076Z,66.21
2018-09-27T05:04:45.262Z,66.44
2018-09-27T05:07:13.420Z,66.30
2018-09-27T05:09:41.601Z,66.22
2018-09-27T05:12:09.754Z,66.67
2018-09-27T05:14:37.927Z,66.94
2018-09-27T05:17:06.086Z,67.00
2018-09-27T05:19:34.247Z,67.04
2018-09-27T05:22:02.413Z,67.07
2018-09-27T05:24:30.586Z,67.15
2018-09-27T05:26:58.758Z,67.08
2018-09-27T05:29:26.966Z,66.89
2018-09-27T05:31:55.136Z,67.56
2018-09-27T05:34:23.331Z,67.08
2018-09-27T05:36:51.511Z,66.98
2018-09-27T05:39:19.688Z,66.30
2018-09-27T05:41:47.878Z,67.11
2018-09-27T05:44:16.032Z,66.40
2018-09-27T05:46:44.216Z,66.24
2018-09-27T05:49:12.397Z,66.30
2018-09-27T05:51:40.621Z,66.52
2018-09-27T05:54:08.747Z,66.79
2018-09-27T05:56:36.955Z,66.70
2018-09-27T05:59:05.135Z,66.83
2018-09-27T06:01:33.295Z,66.33
2018-09-27T06:04:01.455Z,66.37
2018-09-27T06:06:29.620Z,66.25
2018-09-27T06:08:57.794Z,66.92
2018-09-27T06:11:26.011Z,66.47
2018-09-27T06:13:54.159Z,66.51
2018-09-27T06:16:22.350Z,67.38
2018-09-27T06:18:50.887Z,66.92
2018-09-27T06:21:19.051Z,67.44
2018-09-27T06:23:47.242Z,67.37
2018-09-27T06:26:15.406Z,67.00
2018-09-27T06:28:43.582Z,67.19
2018-09-27T06:31:11.764Z,68.07
2018-09-27T06:33:39.995Z,67.97
2018-09-27T06:36:08.099Z,68.20
2018-09-27T06:38:36.331Z,66.99
2018-09-27T06:41:04.473Z,66.65
2018-09-27T06:43:32.620Z,66.49
2018-09-27T06:46:00.783Z,66.96
2018-09-27T06:48:29.003Z,66.71
2018-09-27T06:50:57.170Z,66.52
2018-09-27T06:53:25.366Z,66.74
2018-09-27T06:55:53.581Z,67.08
2018-09-27T06:58:21.976Z,67.87
2018-09-27T07:00:50.281Z,68.54
2018-09-27T07:03:18.989Z,67.88
2018-09-27T07:05:47.246Z,68.30
2018-09-27T07:08:15.473Z,68.02
2018-09-27T07:10:43.731Z,68.82
2018-09-27T07:13:12.089Z,68.65
2018-09-27T07:15:40.480Z,68.46
2018-09-27T07:18:08.675Z,69.42
2018-09-27T07:20:36.910Z,68.84
2018-09-27T07:23:05.130Z,68.30
2018-09-27T07:25:33.386Z,69.33
2018-09-27T07:28:01.662Z,68.56
2018-09-27T07:30:29.906Z,68.28
2018-09-27T07:32:58.151Z,67.68
2018-09-27T07:35:26.728Z,66.92
2018-09-27T07:37:55.008Z,67.14
2018-09-27T07:40:23.281Z,66.57
2018-09-27T07:42:51.541Z,67.38
2018-09-27T07:45:19.805Z,66.49
2018-09-27T07:47:48.081Z,66.72
2018-09-27T07:50:16.308Z,66.30
2018-09-27T07:52:44.571Z,65.15
2018-09-27T07:55:12.837Z,64.78
2018-09-27T07:57:41.093Z,65.48
2018-09-27T08:00:09.513Z,65.76
2018-09-27T08:02:37.859Z,65.29
2018-09-27T08:05:06.017Z,64.15
2018-09-27T08:07:34.287Z,64.10
2018-09-27T08:10:02.536Z,63.76
2018-09-27T08:12:30.778Z,63.14
2018-09-27T08:14:59.014Z,62.23
2018-09-27T08:17:27.332Z,63.06
2018-09-27T08:19:55.632Z,62.56
2018-09-27T08:22:23.928Z,63.27
2018-09-27T08:24:52.286Z,62.46
2018-09-27T08:27:20.566Z,62.87
2018-09-27T08:29:48.921Z,61.93
2018-09-27T08:32:17.261Z,61.56
2018-09-27T08:34:45.505Z,61.20
2018-09-27T08:37:13.771Z,61.48
2018-09-27T08:39:42.048Z,60.92
2018-09-27T08:42:10.407Z,60.76
2018-09-27T08:44:38.803Z,60.44
2018-09-27T08:47:06.989Z,60.50
2018-09-27T08:49:35.238Z,61.00
2018-09-27T08:52:03.514Z,60.50
2018-09-27T08:54:31.808Z,59.62
2018-09-27T08:57:00.082Z,59.92
2018-09-27T08:59:28.340Z,59.40
2018-09-27T09:01:56.595Z,60.57
2018-09-27T09:04:24.856Z,58.83
2018-09-27T09:06:53.101Z,58.84
2018-09-27T09:09:21.339Z,59.19
2018-09-27T09:11:49.588Z,59.58
2018-09-27T09:14:17.863Z,58.82
2018-09-27T09:16:46.093Z,58.71
2018-09-27T09:19:14.565Z,58.40
2018-09-27T09:21:42.899Z,58.63
2018-09-27T09:24:11.121Z,57.88
2018-09-27T09:26:39.406Z,58.22
2018-09-27T09:29:07.800Z,57.29
2018-09-27T09:31:36.118Z,57.49
2018-09-27T09:34:04.387Z,57.90
2018-09-27T09:36:32.661Z,57.37
2018-09-27T09:39:01.050Z,58.10
2018-09-27T09:41:29.322Z,58.03
2018-09-27T09:43:57.592Z,57.01
2018-09-27T09:46:26.066Z,57.49
2018-09-27T09:48:54.336Z,56.36
2018-09-27T09:51:22.586Z,56.32
2018-09-27T09:53:50.834Z,54.91
2018-09-27T09:56:19.091Z,55.07
2018-09-27T09:58:47.374Z,54.44
2018-09-27T10:01:15.641Z,54.57
2018-09-27T10:03:43.938Z,53.00
2018-09-27T10:06:12.218Z,52.38
2018-09-27T10:08:40.504Z,51.77
2018-09-27T10:11:08.797Z,53.28
2018-09-27T10:13:37.117Z,52.13
2018-09-27T10:16:05.394Z,51.58
2018-09-27T10:18:33.652Z,51.77
2018-09-27T10:21:01.938Z,51.71
2018-09-27T10:23:30.238Z,50.39
2018-09-27T10:25:58.577Z,49.98
2018-09-27T10:28:26.821Z,50.09
2018-09-27T10:30:55.127Z,49.04
2018-09-27T10:33:23.517Z,48.91
2018-09-27T10:35:52.036Z,48.90
2018-09-27T10:38:20.299Z,48.64
2018-09-27T10:40:48.655Z,48.62
2018-09-27T10:43:16.961Z,48.55
2018-09-27T10:45:45.205Z,47.01
2018-09-27T10:48:13.479Z,48.36
2018-09-27T10:50:41.733Z,47.97
2018-09-27T10:53:10.105Z,46.46
2018-09-27T10:55:38.402Z,46.59
2018-09-27T10:58:07.418Z,45.34
2018-09-27T11:00:35.667Z,45.48
2018-09-27T11:03:03.913Z,44.84
2018-09-27T11:05:32.216Z,45.40
2018-09-27T11:08:00.498Z,44.48
2018-09-27T11:10:34.475Z,42.74
2018-09-27T11:13:02.818Z,42.08
2018-09-27T11:15:31.109Z,42.65
2018-09-27T11:17:59.449Z,43.59
2018-09-27T11:20:27.708Z,42.56
2018-09-27T11:22:55.990Z,43.56
2018-09-27T11:25:24.264Z,43.24
2018-09-27T11:27:52.513Z,41.68
2018-09-27T11:30:26.131Z,42.51
2018-09-27T11:32:54.556Z,42.10
2018-09-27T11:35:22.823Z,42.47
2018-09-27T11:37:51.101Z,41.81
2018-09-27T11:40:19.563Z,40.50
2018-09-27T11:42:47.890Z,41.23
2018-09-27T11:45:16.239Z,41.42
2018-09-27T11:47:44.530Z,40.18
2018-09-27T11:50:12.882Z,38.62
2018-09-27T11:52:41.590Z,38.93
2018-09-27T11:55:10.265Z,38.80
2018-09-27T11:57:38.563Z,37.59
2018-09-27T12:00:07.732Z,38.25
2018-09-27T12:02:35.971Z,37.48
2018-09-27T12:05:04.422Z,36.89
2018-09-27T12:07:33.479Z,37.20
2018-09-27T12:10:02.209Z,35.46
2018-09-27T12:12:30.584Z,34.01
2018-09-27T12:14:58.853Z,34.39
2018-09-27T12:17:27.149Z,34.49
2018-09-27T12:19:55.438Z,34.04
2018-09-27T12:22:23.628Z,34.46
2018-09-27T12:24:51.889Z,34.25
2018-09-27T12:27:20.237Z,34.26
2018-09-27T12:29:48.476Z,33.69
2018-09-27T12:32:16.729Z,32.80
2018-09-27T12:34:44.991Z,31.22
2018-09-27T12:37:13.253Z,31.70
2018-09-27T12:39:41.598Z,31.64
2018-09-27T12:42:09.964Z,31.24
2018-09-27T12:44:38.013Z,30.11
2018-09-27T12:47:06.256Z,29.69
2018-09-27T12:49:34.512Z,29.16
2018-09-27T12:52:02.988Z,28.46
2018-09-27T12:54:31.102Z,28.71
2018-09-27T12:56:59.473Z,29.19
2018-09-27T12:59:27.725Z,28.54
2018-09-27T13:01:56.119Z,27.95
2018-09-27T13:04:24.277Z,26.92
2018-09-27T13:06:52.549Z,26.69
2018-09-27T13:09:20.974Z,26.31
2018-09-27T13:11:49.184Z,26.52
2018-09-27T13:14:17.523Z,27.44
2018-09-27T13:16:45.790Z,28.29
2018-09-27T13:19:14.045Z,28.42
2018-09-27T13:21:42.326Z,28.27
2018-09-27T13:24:10.568Z,29.09
2018-09-27T13:26:38.864Z,28.18
2018-09-27T13:29:07.041Z,27.78
2018-09-27T13:31:35.365Z,28.65
2018-09-27T13:34:03.630Z,28.49
2018-09-27T13:36:31.905Z,28.76
2018-09-27T13:39:00.192Z,30.62
2018-09-27T13:41:28.480Z,30.34
2018-09-27T13:43:56.789Z,28.96
2018-09-27T13:46:25.102Z,28.65
2018-09-27T13:48:53.358Z,29.34
2018-09-27T13:51:21.606Z,29.00
2018-09-27T13:53:49.935Z,30.00
2018-09-27T13:56:18.267Z,31.38
2018-09-27T13:58:46.622Z,31.00
2018-09-27T14:01:14.981Z,30.05
2018-09-27T14:03:43.225Z,30.21
2018-09-27T14:06:11.531Z,29.45
2018-09-27T14:08:39.763Z,29.97
2018-09-27T14:11:08.013Z,30.62
2018-09-27T14:13:36.262Z,31.12
2018-09-27T14:16:04.516Z,30.65
2018-09-27T14:18:32.762Z,32.24
2018-09-27T14:21:01.155Z,32.74
2018-09-27T14:23:29.372Z,32.66
2018-09-27T14:25:57.604Z,32.00
2018-09-27T14:28:25.846Z,33.15
2018-09-27T14:30:54.117Z,34.17
2018-09-27T14:33:22.367Z,33.94
2018-09-27T14:35:50.671Z,35.35
2018-09-27T14:38:18.850Z,35.96
2018-09-27T14:40:47.097Z,34.06
2018-09-27T14:43:15.348Z,32.21
2018-09-27T14:45:43.612Z,34.79
2018-09-27T14:48:11.815Z,34.55
2018-09-27T14:50:40.028Z,32.96
2018-09-27T14:53:08.306Z,32.54
2018-09-27T14:55:36.532Z,33.32
2018-09-27T14:58:05.013Z,34.65
2018-09-27T15:00:33.343Z,34.10
2018-09-27T15:03:01.679Z,36.36
2018-09-27T15:05:29.877Z,35.23
2018-09-27T15:07:58.102Z,36.47
2018-09-27T15:10:26.487Z,37.03
2018-09-27T15:12:54.634Z,37.35
2018-09-27T15:15:22.880Z,37.27
2018-09-27T15:17:51.111Z,36.78
2018-09-27T15:20:19.432Z,38.26
2018-09-27T15:22:47.880Z,39.27
2018-09-27T15:25:16.208Z,37.83
2018-09-27T15:27:44.414Z,39.38
2018-09-27T15:30:13.921Z,39.11
2018-09-27T15:32:42.233Z,40.23
2018-09-27T15:35:11.661Z,40.96
2018-09-27T15:37:43.510Z,40.46
2018-09-27T15:40:11.740Z,41.03
2018-09-27T15:42:40.079Z,40.97
2018-09-27T15:45:08.322Z,41.11
2018-09-27T15:47:36.580Z,41.07
2018-09-27T15:50:04.951Z,41.98
2018-09-27T15:52:33.209Z,43.06
2018-09-27T15:55:01.543Z,44.42
2018-09-27T15:57:29.747Z,42.83
2018-09-27T15:59:58.130Z,42.77
2018-09-27T16:02:26.401Z,43.04
2018-09-27T16:04:54.625Z,44.47
2018-09-27T16:07:22.932Z,45.72
2018-09-27T16:09:51.179Z,46.48
2018-09-27T16:12:19.466Z,46.58
2018-09-27T16:14:47.788Z,45.39
2018-09-27T16:17:15.951Z,46.67
2018-09-27T16:19:44.126Z,47.21
2018-09-27T16:22:12.361Z,46.51
2018-09-27T16:24:40.643Z,45.57
2018-09-27T16:27:09.051Z,43.98
2018-09-27T16:29:37.271Z,44.09
2018-09-27T16:32:05.596Z,45.22
2018-09-27T16:34:33.788Z,46.13
2018-09-27T16:37:02.044Z,45.37
2018-09-27T16:39:30.672Z,47.64
2018-09-27T16:41:58.954Z,48.91
2018-09-27T16:44:27.151Z,49.32
2018-09-27T16:46:55.338Z,49.76
2018-09-27T16:49:23.630Z,50.42
2018-09-27T16:51:51.871Z,50.58
2018-09-27T16:54:20.075Z,52.09
2018-09-27T16:56:48.302Z,51.36
2018-09-27T16:59:16.520Z,50.01
2018-09-27T17:01:44.898Z,50.64
2018-09-27T17:04:13.115Z,50.70
2018-09-27T17:06:41.300Z,50.89
2018-09-27T17:09:10.103Z,51.50
2018-09-27T17:11:38.460Z,50.92
2018-09-27T17:14:06.843Z,51.47
2018-09-27T17:16:35.268Z,52.73
2018-09-27T17:19:04.218Z,52.04
2018-09-27T17:21:32.583Z,52.44
2018-09-27T17:24:00.765Z,53.26
2018-09-27T17:26:28.971Z,52.62
2018-09-27T17:28:57.219Z,52.74
2018-09-27T17:31:25.534Z,53.36
2018-09-27T17:33:53.775Z,53.50
2018-09-27T17:36:22.018Z,54.91
2018-09-27T17:38:50.351Z,54.45
2018-09-27T17:41:18.614Z,54.99
2018-09-27T17:43:46.897Z,54.86
2018-09-27T17:46:15.121Z,55.45
2018-09-27T17:48:43.499Z,56.10
2018-09-27T17:51:11.698Z,56.24
2018-09-27T17:53:40.111Z,56.33
2018-09-27T17:56:08.308Z,56.01
2018-09-27T17:58:39.541Z,56.02
2018-09-27T18:01:07.764Z,56.67
2018-09-27T18:03:36.119Z,56.83
2018-09-27T18:06:04.614Z,57.04
2018-09-27T18:08:33.023Z,56.84
2018-09-27T18:11:02.462Z,57.58
2018-09-27T18:13:30.796Z,57.93
2018-09-27T18:15:59.075Z,57.62
2018-09-27T18:18:27.413Z,58.33
2018-09-27T18:20:55.811Z,58.36
2018-09-27T18:23:24.048Z,58.69
2018-09-27T18:25:52.345Z,57.69
2018-09-27T18:28:20.640Z,58.72
2018-09-27T18:30:49.330Z,58.03
2018-09-27T18:33:18.085Z,59.25
2018-09-27T18:35:46.366Z,58.55
2018-09-27T18:38:14.759Z,59.55
2018-09-27T18:40:42.960Z,59.69
2018-09-27T18:43:11.608Z,59.83
2018-09-27T18:45:39.701Z,59.72
2018-09-27T18:48:08.021Z,60.08
2018-09-27T18:50:36.394Z,60.71
2018-09-27T18:53:04.623Z,60.31
2018-09-27T18:55:32.915Z,59.87
2018-09-27T18:58:01.160Z,60.62
2018-09-27T19:00:29.702Z,60.56
2018-09-27T19:02:57.890Z,60.65
2018-09-27T19:05:30.135Z,60.96
2018-09-27T19:07:58.385Z,60.58
2018-09-27T19:10:26.618Z,60.77
2018-09-27T19:12:54.971Z,61.42
2018-09-27T19:15:23.942Z,60.82
2018-09-27T19:17:52.476Z,61.95
2018-09-27T19:20:21.968Z,60.91
2018-09-27T19:22:50.344Z,61.73
2018-09-27T19:25:18.510Z,61.77
2018-09-27T19:27:46.712Z,61.13
2018-09-27T19:30:15.360Z,62.47
2018-09-27T19:32:49.342Z,61.72
2018-09-27T19:35:17.668Z,62.19
2018-09-27T19:37:46.110Z,61.25
2018-09-27T19:40:14.415Z,61.38
2018-09-27T19:42:42.766Z,61.69
2018-09-27T19:45:11.100Z,61.58
2018-09-27T19:47:39.406Z,61.55
2018-09-27T19:50:07.725Z,61.83
2018-09-27T19:52:36.318Z,62.26
2018-09-27T19:55:04.613Z,62.32
2018-09-27T19:57:32.850Z,61.63
2018-09-27T20:00:01.190Z,62.33
2018-09-27T20:02:29.736Z,62.33
2018-09-27T20:04:58.133Z,63.26
2018-09-27T20:07:26.323Z,62.96
2018-09-27T20:09:55.086Z,62.50
2018-09-27T20:12:25.004Z,62.49
2018-09-27T20:14:53.466Z,63.21
2018-09-27T20:17:21.769Z,62.86
2018-09-27T20:19:49.933Z,63.55
2018-09-27T20:22:18.233Z,63.88
2018-09-27T20:24:46.459Z,64.12
2018-09-27T20:27:14.674Z,63.96
2018-09-27T20:29:43.108Z,63.27
2018-09-27T20:32:11.787Z,64.01
2018-09-27T20:34:40.472Z,64.02
2018-09-27T20:37:08.628Z,65.14
2018-09-27T20:39:36.927Z,64.16
2018-09-27T20:42:05.137Z,64.28
2018-09-27T20:44:33.434Z,64.65
2018-09-27T20:47:01.847Z,64.15
2018-09-27T20:49:30.237Z,63.84
2018-09-27T20:51:58.894Z,64.59
2018-09-27T20:54:27.150Z,64.47
2018-09-27T20:56:55.387Z,64.19
2018-09-27T20:59:23.636Z,64.88
2018-09-27T21:01:51.842Z,64.36
2018-09-27T21:04:20.016Z,64.10
2018-09-27T21:06:48.204Z,65.27
2018-09-27T21:09:16.394Z,65.33
2018-09-27T21:11:44.612Z,65.15
2018-09-27T21:14:14.517Z,65.23
2018-09-27T21:16:42.679Z,65.47
2018-09-27T21:19:11.001Z,65.38
2018-09-27T21:21:39.260Z,66.11
2018-09-27T21:24:07.511Z,65.48
2018-09-27T21:26:35.775Z,66.35
2018-09-27T21:29:04.003Z,65.73
2018-09-27T21:31:32.186Z,65.14
2018-09-27T21:34:00.387Z,65.78
2018-09-27T21:36:28.589Z,65.55
2018-09-27T21:38:56.844Z,65.79
2018-09-27T21:41:25.076Z,65.16
2018-09-27T21:43:53.248Z,66.53
2018-09-27T21:46:21.438Z,65.92
2018-09-27T21:48:49.625Z,66.09
2018-09-27T21:51:17.880Z,66.36
2018-09-27T21:53:46.031Z,66.07
2018-09-27T21:56:14.184Z,66.61
2018-09-27T21:58:42.600Z,65.62
2018-09-27T22:01:10.832Z,65.57
2018-09-27T22:03:39.079Z,65.91
2018-09-27T22:06:07.245Z,66.48
2018-09-27T22:08:35.404Z,65.75
2018-09-27T22:11:03.669Z,66.32
2018-09-27T22:13:31.926Z,66.23
2018-09-27T22:16:00.179Z,66.51
2018-09-27T22:18:28.579Z,65.56
2018-09-27T22:20:56.783Z,66.49
2018-09-27T22:23:25.007Z,66.85
2018-09-27T22:25:53.250Z,66.64
2018-09-27T22:28:21.497Z,66.16
2018-09-27T22:30:49.704Z,66.05
2018-09-27T22:33:17.983Z,66.96
2018-09-27T22:35:46.204Z,66.69
2018-09-27T22:38:14.453Z,66.04
2018-09-27T22:40:42.664Z,66.66
2018-09-27T22:43:10.915Z,66.19
2018-09-27T22:45:39.099Z,66.40
2018-09-27T22:48:07.343Z,66.54
2018-09-27T22:50:35.566Z,66.07
2018-09-27T22:53:03.746Z,66.56
2018-09-27T22:55:31.899Z,67.22
2018-09-27T22:58:00.092Z,66.59
2018-09-27T23:00:28.299Z,67.13
2018-09-27T23:02:56.566Z,66.49
2018-09-27T23:05:24.874Z,66.32
2018-09-27T23:07:53.002Z,66.42
2018-09-27T23:10:21.176Z,66.52
2018-09-27T23:12:49.533Z,66.87
2018-09-27T23:15:17.865Z,67.02
2018-09-27T23:17:46.108Z,67.31
2018-09-27T23:20:14.438Z,67.36
2018-09-27T23:22:42.608Z,66.49
2018-09-27T23:25:10.786Z,67.50
2018-09-27T23:27:39.055Z,66.71
2018-09-27T23:30:07.430Z,66.96
2018-09-27T23:32:36.194Z,67.49
2018-09-27T23:35:04.742Z,66.19
2018-09-27T23:37:32.939Z,66.69
2018-09-27T23:40:01.130Z,67.50
2018-09-27T23:42:29.388Z,67.24
2018-09-27T23:44:57.555Z,66.74
2018-09-27T23:47:25.808Z,66.49
2018-09-27T23:49:54.050Z,66.40
2018-09-27T23:52:22.299Z,66.61
2018-09-27T23:54:50.570Z,66.29
2018-09-27T23:57:18.834Z,66.70
2018-09-27T23:59:47.055Z,67.08
